CDT,Max TemperatureF,Mean TemperatureF,Min TemperatureF,Max Dew PointF,MeanDew PointF,Min DewpointF,Max Humidity, Mean Humidity, Min Humidity, Max Sea Level PressureIn, Mean Sea Level PressureIn, Min Sea Level PressureIn, Max VisibilityMiles, Mean VisibilityMiles, Min VisibilityMiles, Max Wind SpeedMPH, Mean Wind SpeedMPH, Max Gust SpeedMPH,PrecipitationIn, CloudCover, Events, WindDirDegrees
2013-8-1,83,74,64,70,67,60,100,86,44,30.05,30.00,29.97,10,6,0,12,4,,0.00,4,Fog-Rain,283
2013-8-2,83,72,61,71,66,62,100,78,49,30.04,30.01,29.96,10,10,10,9,3,,0.00,0,Rain,190
2013-8-3,83,76,68,75,71,69,100,86,69,30.06,30.00,29.95,10,9,6,13,4,,0.00,5,,257
2013-8-4,79,72,63,68,59,54,91,65,42,30.15,30.11,30.06,10,10,10,12,5,,0.00,0,,28
2013-8-5,81,68,56,68,62,57,100,77,46,30.10,30.04,29.95,10,10,10,9,3,,0.00,3,,153
2013-8-6,81,75,69,76,72,68,100,91,77,29.96,29.93,29.90,10,8,1,8,3,,0.00,5,Rain,137
2013-8-7,86,78,70,76,73,71,100,94,67,29.95,29.92,29.87,10,5,0,12,2,,0.00,2,Fog,145
2013-8-8,88,80,72,78,75,73,100,93,63,29.98,29.93,29.88,10,8,0,9,3,,0.00,5,Fog-Rain-Thunderstorm,189
2013-8-9,83,78,72,77,74,73,100,93,74,30.04,29.98,29.93,10,8,4,10,4,,0.10,4,Rain-Thunderstorm,241
2013-8-10,84,78,71,76,73,68,100,92,59,30.11,30.06,30.03,10,5,1,8,1,,0.00,4,Rain,307
2013-8-11,86,78,70,74,71,68,100,79,55,30.12,30.08,30.05,10,10,8,9,3,,0.00,2,,300
2013-8-12,86,77,68,77,72,69,100,91,74,30.08,29.99,29.91,10,9,3,14,4,,0.21,5,Rain-Thunderstorm,205
2013-8-13,79,72,64,72,68,56,100,88,62,30.08,29.96,29.90,10,6,1,13,4,,0.00,5,,322
2013-8-14,72,64,55,54,51,47,84,62,41,30.17,30.13,30.08,10,10,10,10,7,,0.00,1,,34
2013-8-15,75,65,55,57,53,51,87,65,45,30.14,30.11,30.06,10,10,10,10,6,,0.00,1,,52
2013-8-16,79,69,59,62,59,57,90,69,48,30.11,30.09,30.07,10,10,10,10,5,,0.00,3,,44
2013-8-17,77,70,63,68,64,61,97,82,69,30.16,30.11,30.08,10,9,6,10,6,,0.05,4,Rain-Thunderstorm,44
2013-8-18,81,72,62,70,66,63,100,86,53,30.17,30.11,30.08,10,8,0,7,2,,0.00,2,Fog-Rain,132
2013-8-19,86,75,64,71,67,65,100,78,49,30.14,30.09,30.04,10,9,6,8,2,,0.00,2,,187
2013-8-20,86,76,66,73,70,67,100,82,55,30.13,30.09,30.04,10,10,5,13,3,16,0.00,2,Rain-Thunderstorm,100
2013-8-21,90,79,68,75,71,68,100,82,51,30.16,30.11,30.06,10,9,6,10,3,,0.00,2,,181
2013-8-22,88,78,68,75,71,66,100,80,46,30.14,30.08,30.02,10,8,2,9,3,,0.00,1,,181
2013-8-23,88,79,70,76,71,67,100,80,51,30.10,30.06,30.01,10,7,3,9,3,,0.00,2,Thunderstorm,50
2013-8-24,88,79,66,68,64,58,93,65,37,30.22,30.18,30.11,10,10,7,12,6,,0.00,0,,93
2013-8-25,86,74,63,74,68,60,96,78,63,30.30,30.25,30.21,10,10,7,12,3,,0.00,2,Rain,179
2013-8-26,90,78,66,73,71,67,100,81,53,30.26,30.19,30.11,10,9,6,10,5,,0.00,1,Rain,207
2013-8-27,88,79,70,77,73,70,100,85,61,30.13,30.07,30.02,10,8,5,12,5,,0.00,1,Rain,210
2013-8-28,92,80,68,73,71,66,100,75,41,30.04,30.01,29.98,10,8,3,15,6,22,0.00,0,,249
2013-8-29,91,82,72,78,74,72,100,76,55,30.01,29.98,29.94,10,9,6,9,4,,0.00,1,,325
2013-8-30,95,82,70,77,72,68,100,73,41,29.97,29.92,29.86,10,9,6,9,3,,0.00,1,,270
2013-8-31,95,84,74,79,76,70,100,82,54,29.90,29.84,29.75,10,9,5,21,5,25,0.08,2,Rain-Thunderstorm,200